createdAt,value
2019-05-07T00:01:16.831Z,7.03
2019-05-07T00:03:46.141Z,7.10
2019-05-07T00:06:15.871Z,6.50
2019-05-07T00:08:45.180Z,7.87
2019-05-07T00:11:14.500Z,6.50
2019-05-07T00:13:46.932Z,7.20
2019-05-07T00:16:16.567Z,6.83
2019-05-07T00:18:46.941Z,6.60
2019-05-07T00:21:23.160Z,6.60
2019-05-07T00:23:52.655Z,6.63
2019-05-07T00:26:22.655Z,7.10
2019-05-07T00:28:52.794Z,6.83
2019-05-07T00:31:23.314Z,7.17
2019-05-07T00:33:53.934Z,6.33
2019-05-07T00:36:36.700Z,6.73
2019-05-07T00:39:08.828Z,6.53
2019-05-07T00:41:42.827Z,5.93
2019-05-07T00:44:15.112Z,6.20
2019-05-07T00:46:45.232Z,6.30
2019-05-07T00:49:14.407Z,6.83
2019-05-07T00:51:43.547Z,6.27
2019-05-07T00:54:17.144Z,6.30
2019-05-07T00:56:51.986Z,5.90
2019-05-07T00:59:22.877Z,6.20
2019-05-07T01:01:52.843Z,6.53
2019-05-07T01:04:23.061Z,5.87
2019-05-07T01:06:53.679Z,6.47
2019-05-07T01:09:27.856Z,6.13
2019-05-07T01:12:03.247Z,5.97
2019-05-07T01:14:32.689Z,6.10
2019-05-07T01:17:02.524Z,5.87
2019-05-07T01:19:32.846Z,6.00
2019-05-07T01:22:03.173Z,6.50
2019-05-07T01:24:32.373Z,6.03
2019-05-07T01:27:02.201Z,6.70
2019-05-07T01:29:34.109Z,6.10
2019-05-07T01:32:07.578Z,6.00
2019-05-07T01:34:38.096Z,5.80
2019-05-07T01:37:08.800Z,6.57
2019-05-07T01:39:38.406Z,6.60
2019-05-07T01:42:12.587Z,6.57
2019-05-07T01:44:41.995Z,6.63
2019-05-07T01:47:13.059Z,5.90
2019-05-07T01:49:42.319Z,6.83
2019-05-07T01:52:13.305Z,5.53
2019-05-07T01:54:42.770Z,6.43
2019-05-07T01:57:12.374Z,5.93
2019-05-07T01:59:43.417Z,7.10
2019-05-07T02:02:22.952Z,6.57
2019-05-07T02:04:59.514Z,6.30
2019-05-07T02:07:37.115Z,7.03
2019-05-07T02:10:08.401Z,6.53
2019-05-07T02:12:38.511Z,7.23
2019-05-07T02:15:11.956Z,6.63
2019-05-07T02:17:46.766Z,6.50
2019-05-07T02:20:17.365Z,6.10
2019-05-07T02:22:47.808Z,5.90
2019-05-07T02:25:17.118Z,6.40
2019-05-07T02:27:46.244Z,6.43
2019-05-07T02:30:16.036Z,6.73
2019-05-07T02:32:47.737Z,6.83
2019-05-07T02:35:16.945Z,6.00
2019-05-07T02:37:56.616Z,6.57
2019-05-07T02:40:25.522Z,7.00
2019-05-07T02:42:55.872Z,6.70
2019-05-07T02:45:44.029Z,6.27
2019-05-07T02:48:12.957Z,6.77
2019-05-07T02:50:53.752Z,6.60
2019-05-07T02:53:35.719Z,6.37
2019-05-07T02:56:06.123Z,6.20
2019-05-07T02:58:35.330Z,6.27
2019-05-07T03:01:13.823Z,6.43
2019-05-07T03:03:44.986Z,6.70
2019-05-07T03:06:13.736Z,6.60
2019-05-07T03:08:44.138Z,6.50
2019-05-07T03:11:14.329Z,6.13
2019-05-07T03:13:44.045Z,6.20
2019-05-07T03:16:13.274Z,6.13
2019-05-07T03:18:43.807Z,6.30
2019-05-07T03:21:18.611Z,6.10
2019-05-07T03:23:53.977Z,6.10
2019-05-07T03:26:26.891Z,6.53
2019-05-07T03:28:57.411Z,6.73
2019-05-07T03:31:35.670Z,7.13
2019-05-07T03:34:07.068Z,6.33
2019-05-07T03:36:48.298Z,6.23
2019-05-07T03:39:17.044Z,6.87
2019-05-07T03:41:46.183Z,6.67
2019-05-07T03:44:16.806Z,6.77
2019-05-07T03:47:01.133Z,6.93
2019-05-07T03:49:37.213Z,7.10
2019-05-07T03:52:09.334Z,7.00
2019-05-07T03:54:43.096Z,7.43
2019-05-07T03:57:15.495Z,6.13
2019-05-07T03:59:43.735Z,6.87
2019-05-07T04:02:15.547Z,6.80
2019-05-07T04:04:46.207Z,5.90
2019-05-07T04:07:15.335Z,6.50
2019-05-07T04:09:44.245Z,7.00
2019-05-07T04:12:14.569Z,6.53
2019-05-07T04:14:43.541Z,5.67
2019-05-07T04:17:17.241Z,6.03
2019-05-07T04:19:46.247Z,6.60
2019-05-07T04:22:16.468Z,6.20
2019-05-07T04:25:04.451Z,6.63
2019-05-07T04:27:38.492Z,6.40
2019-05-07T04:30:08.178Z,6.50
2019-05-07T04:32:38.946Z,6.50
2019-05-07T04:35:12.711Z,5.80
2019-05-07T04:37:42.768Z,6.23
2019-05-07T04:40:13.394Z,6.37
2019-05-07T04:42:42.859Z,6.20
2019-05-07T04:45:13.592Z,6.73
2019-05-07T04:47:47.256Z,6.10
2019-05-07T04:50:37.232Z,6.50
2019-05-07T04:52:48.611Z,6.23
2019-05-07T04:55:19.207Z,6.80
2019-05-07T04:57:53.333Z,6.63
2019-05-07T05:00:23.269Z,6.10
2019-05-07T05:02:54.023Z,6.90
2019-05-07T05:09:03.018Z,8.47
2019-05-07T05:11:33.702Z,7.00
2019-05-07T05:14:09.306Z,6.63
2019-05-07T05:16:43.135Z,7.67
2019-05-07T05:19:23.002Z,7.53
2019-05-07T05:22:02.041Z,7.10
2019-05-07T05:24:34.095Z,7.40
2019-05-07T05:27:09.471Z,7.13
2019-05-07T05:29:43.064Z,7.13
2019-05-07T05:32:13.211Z,8.73
2019-05-07T05:34:51.982Z,8.00
2019-05-07T05:37:22.639Z,8.85
2019-05-07T05:40:05.602Z,8.87
2019-05-07T05:42:26.261Z,7.90
2019-05-07T05:45:03.114Z,8.65
2019-05-07T05:47:33.862Z,7.83
2019-05-07T05:50:06.159Z,6.87
2019-05-07T05:52:39.405Z,9.80
2019-05-07T05:55:12.015Z,7.30
2019-05-07T05:57:44.445Z,8.43
2019-05-07T06:00:28.374Z,14.18
2019-05-07T06:03:05.884Z,10.68
2019-05-07T06:05:47.164Z,6.93
2019-05-07T06:08:32.581Z,7.37
2019-05-07T06:11:21.898Z,10.53
2019-05-07T06:14:12.966Z,7.17
2019-05-07T06:17:02.098Z,7.10
2019-05-07T06:19:34.192Z,7.73
2019-05-07T06:22:09.392Z,8.93
2019-05-07T06:24:52.113Z,7.13
2019-05-07T06:27:37.355Z,8.58
2019-05-07T06:30:22.526Z,9.13
2019-05-07T06:32:52.342Z,7.77
2019-05-07T06:35:32.445Z,7.27
2019-05-07T06:38:13.801Z,9.43
2019-05-07T06:40:51.952Z,7.87
2019-05-07T06:43:45.932Z,8.10
2019-05-07T06:46:16.337Z,7.87
2019-05-07T06:48:46.268Z,7.33
2019-05-07T06:51:17.573Z,7.23
2019-05-07T06:56:42.116Z,9.70
2019-05-07T06:59:14.679Z,9.03
2019-05-07T07:01:54.031Z,8.53
2019-05-07T07:04:43.824Z,9.30
2019-05-07T07:07:29.860Z,9.15
2019-05-07T07:10:03.307Z,9.28
2019-05-07T07:12:33.299Z,8.17
2019-05-07T07:15:06.961Z,6.93
2019-05-07T07:17:41.853Z,8.63
2019-05-07T07:20:21.863Z,7.77
2019-05-07T07:22:56.166Z,7.67
2019-05-07T07:25:33.371Z,7.93
2019-05-07T07:28:12.103Z,7.60
2019-05-07T07:30:45.188Z,7.70
2019-05-07T07:33:22.411Z,7.63
2019-05-07T07:35:57.486Z,7.80
2019-05-07T07:38:34.630Z,7.50
2019-05-07T07:41:15.687Z,9.03
2019-05-07T07:43:45.774Z,8.20
2019-05-07T07:46:18.866Z,7.63
2019-05-07T07:48:48.197Z,7.10
2019-05-07T07:51:17.497Z,7.80
2019-05-07T07:53:53.932Z,7.77
2019-05-07T07:56:56.354Z,7.13
2019-05-07T07:59:43.381Z,5.73
2019-05-07T08:02:17.775Z,6.27
2019-05-07T08:05:12.385Z,6.47
2019-05-07T08:10:39.519Z,6.33
2019-05-07T08:13:12.239Z,6.60
2019-05-07T08:15:45.837Z,6.63
2019-05-07T08:18:22.250Z,6.30
2019-05-07T08:20:56.119Z,6.83
2019-05-07T08:23:31.790Z,7.57
2019-05-07T08:26:02.529Z,7.37
2019-05-07T08:28:33.238Z,7.00
2019-05-07T08:31:23.259Z,6.77
2019-05-07T08:34:07.684Z,6.80
2019-05-07T08:36:42.008Z,6.90
2019-05-07T08:39:13.582Z,7.20
2019-05-07T08:41:44.697Z,6.67
2019-05-07T08:44:35.848Z,6.20
2019-05-07T08:47:22.904Z,6.50
2019-05-07T08:50:02.874Z,7.30
2019-05-07T08:52:36.740Z,7.33
2019-05-07T08:55:13.710Z,6.23
2019-05-07T08:57:46.005Z,6.53
2019-05-07T09:00:36.030Z,6.13
2019-05-07T09:03:04.959Z,6.40
2019-05-07T09:05:37.945Z,5.90
2019-05-07T09:08:09.158Z,5.90
2019-05-07T09:10:42.946Z,5.37
2019-05-07T09:13:17.547Z,5.47
2019-05-07T09:15:55.706Z,5.20
2019-05-07T09:18:28.127Z,5.43
2019-05-07T09:20:57.352Z,6.20
2019-05-07T09:23:31.697Z,4.97
2019-05-07T09:26:02.752Z,5.20
2019-05-07T09:28:54.222Z,6.23
2019-05-07T09:32:22.631Z,6.08
2019-05-07T09:34:56.934Z,5.30
2019-05-07T09:38:17.575Z,5.57
2019-05-07T09:40:47.292Z,5.67
2019-05-07T09:44:07.485Z,5.87
2019-05-07T09:46:40.091Z,5.13
2019-05-07T09:49:46.670Z,5.70
2019-05-07T09:52:25.079Z,4.73
2019-05-07T09:55:32.588Z,4.33
2019-05-07T09:58:35.727Z,4.73
2019-05-07T10:01:32.578Z,5.27
2019-05-07T10:04:02.768Z,6.00
2019-05-07T10:07:14.967Z,5.17
2019-05-07T10:09:44.309Z,5.10
2019-05-07T10:13:12.280Z,4.80
2019-05-07T10:15:47.787Z,5.13
2019-05-07T10:18:47.432Z,4.70
2019-05-07T10:21:18.282Z,4.67
2019-05-07T10:24:26.040Z,4.40
2019-05-07T10:27:12.487Z,4.20
2019-05-07T10:30:33.384Z,4.43
2019-05-07T10:33:04.867Z,3.83
2019-05-07T10:36:18.357Z,4.43
2019-05-07T10:38:49.070Z,5.22
2019-05-07T10:41:57.815Z,5.15
2019-05-07T10:44:28.498Z,4.07
2019-05-07T10:47:48.741Z,5.23
2019-05-07T10:50:38.719Z,4.50
2019-05-07T10:53:36.806Z,4.37
2019-05-07T10:56:16.895Z,4.30
2019-05-07T10:59:27.012Z,4.63
2019-05-07T11:05:08.900Z,4.27
2019-05-07T11:07:38.283Z,4.13
2019-05-07T11:43:57.562Z,5.47
2019-05-07T11:46:41.591Z,5.33
2019-05-07T11:49:56.970Z,5.67
2019-05-07T11:52:35.192Z,4.33
2019-05-07T11:55:03.975Z,4.63
2019-05-07T11:57:33.587Z,4.33
2019-05-07T12:00:08.625Z,4.80
2019-05-07T12:03:19.442Z,4.70
2019-05-07T12:05:54.067Z,4.33
2019-05-07T13:08:48.803Z,4.57
2019-05-07T13:11:57.475Z,3.67
2019-05-07T13:14:34.317Z,3.40
2019-05-07T13:24:22.739Z,3.57
2019-05-07T13:26:53.603Z,3.67
2019-05-07T13:29:24.405Z,3.57
2019-05-07T13:32:02.833Z,4.20
2019-05-07T13:52:03.153Z,3.60
2019-05-07T13:54:29.674Z,4.00
2019-05-07T13:57:52.458Z,3.70
